createdAt,value
2018-05-06T00:00:53.699Z,101891.70
2018-05-06T00:03:22.038Z,101893.47
2018-05-06T00:05:50.408Z,101896.55
2018-05-06T00:08:20.266Z,101900.08
2018-05-06T00:10:48.606Z,101900.51
2018-05-06T00:13:16.969Z,101904.95
2018-05-06T00:15:46.077Z,101898.77
2018-05-06T00:18:15.207Z,101900.08
2018-05-06T00:20:43.531Z,101895.66
2018-05-06T00:23:11.854Z,101898.73
2018-05-06T00:25:40.212Z,101892.09
2018-05-06T00:28:08.558Z,101903.13
2018-05-06T00:30:36.892Z,101900.05
2018-05-06T00:33:05.234Z,101900.94
2018-05-06T00:35:34.371Z,101908.88
2018-05-06T00:38:03.123Z,101905.38
2018-05-06T00:40:31.876Z,101911.56
2018-05-06T00:43:00.222Z,101904.05
2018-05-06T00:45:28.572Z,101908.01
2018-05-06T00:47:56.899Z,101907.12
2018-05-06T00:50:25.271Z,101909.75
2018-05-06T00:52:53.610Z,101915.45
2018-05-06T00:55:21.919Z,101919.89
2018-05-06T00:57:50.277Z,101914.17
2018-05-06T01:00:18.639Z,101915.52
2018-05-06T01:02:46.967Z,101926.97
2018-05-06T01:05:15.306Z,101926.11
2018-05-06T01:07:43.657Z,101928.73
2018-05-06T01:10:12.041Z,101925.22
2018-05-06T01:12:40.759Z,101931.39
2018-05-06T01:15:09.123Z,101928.30
2018-05-06T01:17:37.484Z,101916.38
2018-05-06T01:20:05.811Z,101923.90
2018-05-06T01:22:34.163Z,101923.45
2018-05-06T01:25:03.201Z,101932.70
2018-05-06T01:27:31.550Z,101930.06
2018-05-06T01:29:59.876Z,101929.61
2018-05-06T01:32:28.994Z,101933.59
2018-05-06T01:34:57.314Z,101930.90
2018-05-06T01:37:25.653Z,101930.90
2018-05-06T01:39:53.949Z,101935.31
2018-05-06T01:42:22.303Z,101935.73
2018-05-06T01:44:50.680Z,101925.63
2018-05-06T01:47:19.001Z,101931.83
2018-05-06T01:49:47.339Z,101935.34
2018-05-06T01:52:15.671Z,101935.75
2018-05-06T01:54:44.011Z,101930.89
2018-05-06T01:57:12.340Z,101939.68
2018-05-06T01:59:42.207Z,101934.40
2018-05-06T02:02:10.551Z,101932.55
2018-05-06T02:04:38.914Z,101930.87
2018-05-06T02:07:08.635Z,101931.78
2018-05-06T02:09:36.957Z,101938.34
2018-05-06T02:12:05.335Z,101937.41
2018-05-06T02:14:33.669Z,101942.66
2018-05-06T02:17:01.991Z,101944.87
2018-05-06T02:19:30.301Z,101943.94
2018-05-06T02:21:59.393Z,101943.92
2018-05-06T02:24:28.731Z,101940.80
2018-05-06T02:26:57.034Z,101941.65
2018-05-06T02:29:25.379Z,101940.73
2018-05-06T02:31:54.123Z,101943.83
2018-05-06T02:34:23.673Z,101941.13
2018-05-06T02:36:51.970Z,101944.61
2018-05-06T02:39:20.427Z,101952.06
2018-05-06T02:41:50.448Z,101945.02
2018-05-06T02:44:18.823Z,101953.77
2018-05-06T02:46:47.622Z,101959.41
2018-05-06T02:49:16.225Z,101948.86
2018-05-06T02:51:44.583Z,101946.19
2018-05-06T02:54:13.243Z,101954.12
2018-05-06T02:56:42.467Z,101948.00
2018-05-06T02:59:11.100Z,101954.53
2018-05-06T03:01:39.545Z,101952.30
2018-05-06T03:04:08.958Z,101948.28
2018-05-06T03:06:37.326Z,101948.70
2018-05-06T03:09:06.448Z,101947.44
2018-05-06T03:11:34.885Z,101945.70
2018-05-06T03:14:03.335Z,101947.83
2018-05-06T03:16:32.793Z,101948.25
2018-05-06T03:19:01.155Z,101947.42
2018-05-06T03:21:29.823Z,101949.30
2018-05-06T03:23:58.173Z,101948.84
2018-05-06T03:26:27.295Z,101946.19
2018-05-06T03:28:57.066Z,101949.71
2018-05-06T03:31:25.535Z,101952.37
2018-05-06T03:33:54.115Z,101953.19
2018-05-06T03:36:22.441Z,101960.64
2018-05-06T03:38:50.802Z,101958.81
2018-05-06T03:41:19.910Z,101957.01
2018-05-06T03:43:48.243Z,101961.12
2018-05-06T03:46:16.583Z,101965.58
2018-05-06T03:48:44.915Z,101963.81
2018-05-06T03:51:13.277Z,101968.67
2018-05-06T03:53:41.587Z,101966.95
2018-05-06T03:59:54.179Z,101966.03
2018-05-06T04:02:40.814Z,101967.27
2018-05-06T04:05:09.917Z,101964.79
2018-05-06T04:07:38.259Z,101968.39
2018-05-06T04:10:06.576Z,101970.59
2018-05-06T04:12:35.684Z,101977.18
2018-05-06T04:15:04.002Z,101967.12
2018-05-06T04:17:32.354Z,101961.41
2018-05-06T04:20:00.659Z,101964.08
2018-05-06T04:22:28.999Z,101964.03
2018-05-06T04:24:57.346Z,101964.05
2018-05-06T04:27:26.080Z,101966.24
2018-05-06T04:29:54.405Z,101963.17
2018-05-06T04:32:23.530Z,101964.94
2018-05-06T04:34:51.849Z,101968.92
2018-05-06T04:37:20.197Z,101964.08
2018-05-06T04:39:48.562Z,101965.45
2018-05-06T04:42:16.880Z,101966.88
2018-05-06T04:44:45.260Z,101966.48
2018-05-06T04:47:13.615Z,101957.35
2018-05-06T04:49:41.956Z,101965.30
2018-05-06T04:52:11.602Z,101968.84
2018-05-06T04:54:39.976Z,101978.17
2018-05-06T04:57:08.740Z,101978.63
2018-05-06T04:59:37.107Z,101972.45
2018-05-06T05:02:06.186Z,101974.64
2018-05-06T05:04:34.540Z,101970.25
2018-05-06T05:07:02.906Z,101970.22
2018-05-06T05:09:31.291Z,101967.09
2018-05-06T05:12:06.534Z,101970.14
2018-05-06T05:14:35.011Z,101968.34
2018-05-06T05:17:03.317Z,101972.73
2018-05-06T05:19:31.898Z,101970.44
2018-05-06T05:22:00.218Z,101973.50
2018-05-06T05:24:28.566Z,101973.09
2018-05-06T05:26:57.661Z,101969.51
2018-05-06T05:29:26.066Z,101973.48
2018-05-06T05:31:54.381Z,101970.80
2018-05-06T05:34:22.802Z,101976.89
2018-05-06T05:36:51.092Z,101972.29
2018-05-06T05:39:19.418Z,101970.06
2018-05-06T05:41:47.740Z,101966.92
2018-05-06T05:44:16.080Z,101975.00
2018-05-06T05:46:44.425Z,101977.27
2018-05-06T05:49:13.750Z,101976.78
2018-05-06T05:51:42.373Z,101977.16
2018-05-06T05:54:11.506Z,101984.67
2018-05-06T05:56:39.852Z,101980.38
2018-05-06T05:59:08.199Z,101977.27
2018-05-06T06:01:37.307Z,101978.98
2018-05-06T06:04:06.034Z,101977.16
2018-05-06T06:06:35.595Z,101978.37
2018-05-06T06:09:05.562Z,101981.89
2018-05-06T06:11:33.909Z,101979.19
2018-05-06T06:14:02.254Z,101980.06
2018-05-06T06:16:33.415Z,101984.02
2018-05-06T06:19:02.630Z,101980.94
2018-05-06T06:21:31.042Z,101981.03
2018-05-06T06:23:59.418Z,101981.89
2018-05-06T06:26:27.838Z,101992.41
2018-05-06T06:28:56.984Z,101990.59
2018-05-06T06:31:25.333Z,101990.67
2018-05-06T06:33:54.470Z,101986.67
2018-05-06T06:36:22.850Z,101984.81
2018-05-06T06:38:51.206Z,101983.41
2018-05-06T06:41:19.590Z,101983.84
2018-05-06T06:43:48.861Z,101982.91
2018-05-06T06:46:17.208Z,101983.32
2018-05-06T06:48:46.369Z,101988.55
2018-05-06T06:51:14.695Z,101991.56
2018-05-06T06:53:43.841Z,101982.08
2018-05-06T06:56:12.213Z,101985.96
2018-05-06T06:58:40.532Z,101983.14
2018-05-06T07:01:08.926Z,101981.70
2018-05-06T07:03:38.035Z,101981.23
2018-05-06T07:06:07.541Z,101979.75
2018-05-06T07:08:36.668Z,101982.88
2018-05-06T07:11:05.087Z,101980.09
2018-05-06T07:13:34.982Z,101981.97
2018-05-06T07:16:04.897Z,101988.98
2018-05-06T07:18:33.269Z,101990.66
2018-05-06T07:21:01.598Z,101992.77
2018-05-06T07:23:30.733Z,101994.23
2018-05-06T07:25:59.543Z,101991.92
2018-05-06T07:28:27.877Z,101987.41
2018-05-06T07:30:56.217Z,101985.14
2018-05-06T07:33:25.446Z,101988.98
2018-05-06T07:35:54.843Z,101995.42
2018-05-06T07:38:23.595Z,101993.91
2018-05-06T07:40:51.906Z,101973.92
2018-05-06T07:43:20.987Z,101997.50
2018-05-06T07:45:50.142Z,101997.38
2018-05-06T07:48:18.442Z,101995.55
2018-05-06T07:50:46.893Z,101980.45
2018-05-06T07:53:15.205Z,101994.79
2018-05-06T07:55:43.586Z,102012.02
2018-05-06T07:58:12.699Z,102000.83
2018-05-06T08:00:41.054Z,101999.29
2018-05-06T08:03:09.402Z,102001.77
2018-05-06T08:05:37.751Z,102004.69
2018-05-06T08:08:06.055Z,102015.17
2018-05-06T08:10:34.431Z,102013.23
2018-05-06T08:13:02.812Z,102016.59
2018-05-06T08:15:31.536Z,102019.52
2018-05-06T08:18:00.704Z,102010.91
2018-05-06T08:20:29.028Z,102022.19
2018-05-06T08:22:57.405Z,102022.16
2018-05-06T08:25:25.723Z,102022.14
2018-05-06T08:27:54.065Z,102022.31
2018-05-06T08:30:23.545Z,102020.81
2018-05-06T08:32:51.927Z,102025.50
2018-05-06T08:35:21.103Z,102023.51
2018-05-06T08:37:49.448Z,102020.22
2018-05-06T08:40:17.795Z,102022.27
2018-05-06T08:42:46.141Z,102018.68
2018-05-06T08:45:14.474Z,102021.84
2018-05-06T08:47:42.866Z,102025.70
2018-05-06T08:50:11.208Z,102018.72
2018-05-06T08:52:39.584Z,102017.30
2018-05-06T08:55:08.661Z,102014.74
2018-05-06T08:57:37.809Z,102007.00
2018-05-06T09:00:06.156Z,102004.93
2018-05-06T09:02:34.545Z,102012.28
2018-05-06T09:05:02.937Z,102016.09
2018-05-06T09:07:31.297Z,102014.13
2018-05-06T09:09:59.635Z,102003.95
2018-05-06T09:12:27.981Z,101990.52
2018-05-06T09:14:56.324Z,101999.95
2018-05-06T09:17:24.696Z,101983.83
2018-05-06T09:19:53.068Z,101982.64
2018-05-06T09:22:22.200Z,101991.24
2018-05-06T09:24:50.557Z,101980.58
2018-05-06T09:27:18.868Z,101979.73
2018-05-06T09:29:47.240Z,101980.00
2018-05-06T09:32:16.400Z,101974.48
2018-05-06T09:34:44.686Z,101972.44
2018-05-06T09:37:13.020Z,101969.59
2018-05-06T09:39:41.390Z,101976.67
2018-05-06T09:42:09.703Z,101968.18
2018-05-06T09:44:38.842Z,101984.80
2018-05-06T09:47:07.154Z,101983.15
2018-05-06T09:49:35.527Z,101977.84
2018-05-06T09:52:03.887Z,101977.38
2018-05-06T09:54:32.232Z,101977.27
2018-05-06T09:57:00.558Z,101970.09
2018-05-06T09:59:28.919Z,101971.72
2018-05-06T10:01:57.297Z,101969.21
2018-05-06T10:04:25.619Z,101971.28
2018-05-06T10:06:54.778Z,101970.19
2018-05-06T10:09:23.136Z,101973.17
2018-05-06T10:11:51.586Z,101980.67
2018-05-06T10:14:20.296Z,101961.80
2018-05-06T10:16:48.632Z,101969.72
2018-05-06T10:19:17.808Z,101964.66
2018-05-06T10:21:46.136Z,101964.66
2018-05-06T10:24:14.496Z,101963.27
2018-05-06T10:26:42.878Z,101965.63
2018-05-06T10:29:11.203Z,101956.31
2018-05-06T10:31:39.563Z,101953.13
2018-05-06T10:34:07.880Z,101953.98
2018-05-06T10:36:36.236Z,101958.25
2018-05-06T10:39:04.644Z,101948.74
2018-05-06T10:41:33.738Z,101947.14
2018-05-06T10:44:02.940Z,101943.83
2018-05-06T10:46:31.240Z,101939.72
2018-05-06T10:48:59.617Z,101935.68
2018-05-06T10:51:27.975Z,101941.02
2018-05-06T10:53:57.185Z,101938.06
2018-05-06T10:56:28.776Z,101929.44
2018-05-06T10:58:58.197Z,101932.58
2018-05-06T11:01:27.251Z,101931.31
2018-05-06T11:03:55.662Z,101929.98
2018-05-06T11:06:24.846Z,101924.45
2018-05-06T11:08:53.980Z,101926.83
2018-05-06T11:11:23.123Z,101912.22
2018-05-06T11:13:52.067Z,101919.38
2018-05-06T11:16:20.728Z,101918.46
2018-05-06T11:18:49.503Z,101923.25
2018-05-06T11:21:18.161Z,101918.05
2018-05-06T11:23:46.824Z,101907.63
2018-05-06T11:26:15.974Z,101906.75
2018-05-06T11:28:44.285Z,101907.28
2018-05-06T11:31:12.927Z,101907.23
2018-05-06T11:33:41.324Z,101902.57
2018-05-06T11:36:09.869Z,101910.42
2018-05-06T11:38:38.210Z,101903.30
2018-05-06T11:41:08.814Z,101910.92
2018-05-06T11:43:37.179Z,101904.26
2018-05-06T11:46:05.540Z,101895.69
2018-05-06T11:48:34.772Z,101896.64
2018-05-06T11:51:03.395Z,101901.56
2018-05-06T11:53:32.201Z,101896.25
2018-05-06T11:56:00.651Z,101899.59
2018-05-06T11:58:29.463Z,101896.41
2018-05-06T12:00:58.375Z,101892.83
2018-05-06T12:03:26.852Z,101885.17
2018-05-06T12:05:55.413Z,101875.38
2018-05-06T12:08:23.729Z,101878.34
2018-05-06T12:10:52.625Z,101874.72
2018-05-06T12:13:22.878Z,101863.00
2018-05-06T12:15:51.655Z,101861.23
2018-05-06T12:18:21.661Z,101860.11
2018-05-06T12:20:51.410Z,101856.69
2018-05-06T12:23:19.834Z,101845.75
2018-05-06T12:25:48.209Z,101858.14
2018-05-06T12:28:16.556Z,101852.63
2018-05-06T12:30:44.951Z,101847.70
2018-05-06T12:33:13.271Z,101850.47
2018-05-06T12:35:41.760Z,101852.80
2018-05-06T12:38:10.869Z,101848.49
2018-05-06T12:40:39.987Z,101844.19
2018-05-06T12:43:08.340Z,101847.28
2018-05-06T12:45:37.599Z,101829.03
2018-05-06T12:48:05.976Z,101829.14
2018-05-06T12:50:34.347Z,101821.36
2018-05-06T12:53:02.695Z,101821.75
2018-05-06T12:55:31.042Z,101814.36
2018-05-06T12:57:59.364Z,101816.89
2018-05-06T13:00:27.735Z,101824.25
2018-05-06T13:02:56.079Z,101802.58
2018-05-06T13:05:25.202Z,101795.45
2018-05-06T13:07:53.578Z,101803.49
2018-05-06T13:10:21.904Z,101805.30
2018-05-06T13:12:50.270Z,101801.84
2018-05-06T13:15:18.588Z,101805.41
2018-05-06T13:17:46.938Z,101800.16
2018-05-06T13:20:15.303Z,101794.88
2018-05-06T13:22:43.618Z,101793.83
2018-05-06T13:25:12.752Z,101787.91
2018-05-06T13:27:41.058Z,101785.57
2018-05-06T13:30:09.417Z,101788.55
2018-05-06T13:32:37.722Z,101789.23
2018-05-06T13:35:06.846Z,101784.17
2018-05-06T13:37:35.978Z,101778.70
2018-05-06T13:40:04.373Z,101768.36
2018-05-06T13:42:32.722Z,101769.36
2018-05-06T13:45:01.047Z,101770.89
2018-05-06T13:47:29.384Z,101767.67
2018-05-06T13:49:57.980Z,101763.13
2018-05-06T13:52:26.182Z,101772.39
2018-05-06T13:54:54.746Z,101768.33
2018-05-06T13:57:23.364Z,101767.23
2018-05-06T13:59:51.716Z,101768.36
2018-05-06T14:04:47.784Z,101757.03
2018-05-06T14:07:16.195Z,101752.91
2018-05-06T14:09:44.536Z,101753.38
2018-05-06T14:12:13.760Z,101753.12
2018-05-06T14:14:42.446Z,101753.22
2018-05-06T14:17:10.804Z,101746.61
2018-05-06T14:19:40.137Z,101752.55
2018-05-06T14:22:08.500Z,101741.27
2018-05-06T14:24:37.192Z,101739.08
2018-05-06T14:27:05.927Z,101738.23
2018-05-06T14:29:34.535Z,101744.42
2018-05-06T14:32:03.033Z,101730.58
2018-05-06T14:34:32.117Z,101727.17
2018-05-06T14:37:01.254Z,101724.86
2018-05-06T14:39:29.655Z,101726.96
2018-05-06T14:41:58.795Z,101733.80
2018-05-06T14:44:27.894Z,101732.42
2018-05-06T14:47:14.803Z,101724.91
2018-05-06T14:49:43.905Z,101733.30
2018-05-06T14:52:12.265Z,101732.61
2018-05-06T14:54:41.397Z,101726.59
2018-05-06T14:57:09.740Z,101728.80
2018-05-06T14:59:38.873Z,101723.47
2018-05-06T15:02:07.207Z,101722.72
2018-05-06T15:04:36.343Z,101723.97
2018-05-06T15:07:04.667Z,101719.48
2018-05-06T15:09:32.990Z,101722.70
2018-05-06T15:12:01.341Z,101713.96
2018-05-06T15:14:37.278Z,101717.94
2018-05-06T15:17:05.624Z,101714.17
2018-05-06T15:19:33.940Z,101718.30
2018-05-06T15:22:03.320Z,101717.13
2018-05-06T15:24:32.283Z,101717.69
2018-05-06T15:27:02.710Z,101717.95
2018-05-06T15:32:05.977Z,101709.35
2018-05-06T15:34:34.393Z,101706.94
2018-05-06T15:37:11.667Z,101709.92
2018-05-06T15:39:40.241Z,101706.03
2018-05-06T15:42:08.816Z,101716.27
2018-05-06T15:44:38.021Z,101718.05
2018-05-06T15:47:06.629Z,101710.09
2018-05-06T15:49:35.181Z,101717.41
2018-05-06T15:52:04.910Z,101704.37
2018-05-06T15:54:33.415Z,101708.92
2018-05-06T15:57:02.282Z,101704.92
2018-05-06T15:59:30.776Z,101702.28
2018-05-06T16:04:59.831Z,101697.09
2018-05-06T16:07:29.501Z,101697.34
2018-05-06T16:09:57.945Z,101698.96
2018-05-06T16:12:27.340Z,101698.72
2018-05-06T16:14:56.720Z,101696.61
2018-05-06T16:17:25.056Z,101693.91
2018-05-06T16:19:53.585Z,101693.81
2018-05-06T16:22:23.038Z,101692.13
2018-05-06T16:24:52.283Z,101692.30
2018-05-06T16:27:20.763Z,101686.00
2018-05-06T16:29:49.108Z,101687.34
2018-05-06T16:32:17.553Z,101693.98
2018-05-06T16:34:46.825Z,101694.72
2018-05-06T16:37:15.209Z,101692.30
2018-05-06T16:39:44.429Z,101676.84
2018-05-06T16:42:13.218Z,101689.87
2018-05-06T16:44:42.549Z,101684.82
2018-05-06T16:47:13.244Z,101682.60
2018-05-06T16:49:47.865Z,101678.77
2018-05-06T16:52:18.650Z,101680.98
2018-05-06T16:54:47.020Z,101688.45
2018-05-06T16:57:15.760Z,101684.42
2018-05-06T16:59:44.528Z,101685.91
2018-05-06T17:02:13.968Z,101682.16
2018-05-06T17:04:42.784Z,101662.34
2018-05-06T17:07:11.570Z,101685.53
2018-05-06T17:09:40.245Z,101673.19
2018-05-06T17:12:08.680Z,101678.03
2018-05-06T17:14:37.120Z,101651.53
2018-05-06T17:17:05.512Z,101679.88
2018-05-06T17:19:42.551Z,101669.84
2018-05-06T17:22:11.342Z,101678.23
2018-05-06T17:24:39.655Z,101674.28
2018-05-06T17:27:08.988Z,101673.34
2018-05-06T17:29:38.132Z,101681.58
2018-05-06T17:32:06.554Z,101681.31
2018-05-06T17:34:34.949Z,101678.76
2018-05-06T17:37:04.041Z,101682.92
2018-05-06T17:39:33.201Z,101682.88
2018-05-06T17:42:01.766Z,101682.49
2018-05-06T17:44:31.072Z,101680.14
2018-05-06T17:47:00.179Z,101683.48
2018-05-06T17:49:28.552Z,101685.53
2018-05-06T17:51:57.745Z,101684.78
2018-05-06T17:54:26.097Z,101686.70
2018-05-06T17:56:54.515Z,101688.81
2018-05-06T17:59:22.837Z,101693.47
2018-05-06T18:01:54.232Z,101693.02
2018-05-06T18:04:22.575Z,101694.22
2018-05-06T18:06:50.988Z,101689.44
2018-05-06T18:09:19.333Z,101695.46
2018-05-06T18:11:48.566Z,101698.11
2018-05-06T18:14:18.236Z,101698.81
2018-05-06T18:16:46.648Z,101709.39
2018-05-06T18:19:15.269Z,101701.39
2018-05-06T18:21:43.732Z,101706.88
2018-05-06T18:24:12.058Z,101703.39
2018-05-06T18:26:40.808Z,101706.72
2018-05-06T18:29:10.155Z,101707.79
2018-05-06T18:31:38.481Z,101705.67
2018-05-06T18:34:06.915Z,101705.13
2018-05-06T18:36:35.253Z,101703.66
2018-05-06T18:39:05.228Z,101706.62
2018-05-06T18:41:33.748Z,101703.69
2018-05-06T18:44:02.903Z,101705.69
2018-05-06T18:46:32.043Z,101705.11
2018-05-06T18:49:01.186Z,101709.44
2018-05-06T18:51:30.628Z,101713.23
2018-05-06T18:54:00.587Z,101711.39
2018-05-06T18:56:30.198Z,101706.05
2018-05-06T18:58:58.552Z,101713.93
2018-05-06T19:01:27.377Z,101707.80
2018-05-06T19:03:55.766Z,101711.84
2018-05-06T19:06:24.136Z,101715.45
2018-05-06T19:08:52.934Z,101718.73
2018-05-06T19:11:21.247Z,101726.53
2018-05-06T19:13:50.649Z,101722.99
2018-05-06T19:16:18.982Z,101720.98
2018-05-06T19:18:48.471Z,101720.47
2018-05-06T19:21:16.782Z,101721.32
2018-05-06T19:23:45.219Z,101722.41
2018-05-06T19:26:13.643Z,101721.56
2018-05-06T19:28:42.041Z,101722.28
2018-05-06T19:31:10.351Z,101721.30
2018-05-06T19:33:40.119Z,101723.30
2018-05-06T19:36:09.227Z,101729.13
2018-05-06T19:38:37.965Z,101722.05
2018-05-06T19:41:06.293Z,101724.84
2018-05-06T19:43:35.399Z,101723.47
2018-05-06T19:46:04.530Z,101729.94
2018-05-06T19:48:33.741Z,101732.92
2018-05-06T19:51:03.022Z,101737.75
2018-05-06T19:53:32.162Z,101731.61
2018-05-06T19:56:00.522Z,101732.46
2018-05-06T19:58:28.848Z,101728.08
2018-05-06T20:00:58.080Z,101736.95
2018-05-06T20:03:26.487Z,101739.69
2018-05-06T20:05:54.826Z,101731.56
2018-05-06T20:08:23.173Z,101734.19
2018-05-06T20:10:52.371Z,101738.41
2018-05-06T20:13:21.489Z,101741.81
2018-05-06T20:15:49.950Z,101734.35
2018-05-06T20:18:19.918Z,101736.83
2018-05-06T20:20:48.304Z,101735.91
2018-05-06T20:23:16.676Z,101722.65
2018-05-06T20:25:46.140Z,101738.45
2018-05-06T20:28:14.647Z,101742.91
2018-05-06T20:30:43.069Z,101750.84
2018-05-06T20:33:11.554Z,101748.05
2018-05-06T20:35:39.922Z,101743.28
2018-05-06T20:38:08.314Z,101747.98
2018-05-06T20:40:37.827Z,101751.13
2018-05-06T20:43:07.322Z,101742.85
2018-05-06T20:45:35.652Z,101740.63
2018-05-06T20:48:03.968Z,101742.61
2018-05-06T20:50:32.724Z,101740.23
2018-05-06T20:53:01.041Z,101736.83
2018-05-06T20:55:30.162Z,101743.58
2018-05-06T20:57:58.644Z,101742.80
2018-05-06T21:00:26.998Z,101747.57
2018-05-06T21:02:56.102Z,101748.27
2018-05-06T21:05:25.250Z,101745.44
2018-05-06T21:07:53.591Z,101745.45
2018-05-06T21:10:21.941Z,101746.61
2018-05-06T21:12:51.068Z,101741.02
2018-05-06T21:15:19.423Z,101746.73
2018-05-06T21:17:48.569Z,101743.77
2018-05-06T21:20:18.492Z,101738.18
2018-05-06T21:22:46.851Z,101740.35
2018-05-06T21:25:15.208Z,101742.41
2018-05-06T21:27:43.644Z,101740.88
2018-05-06T21:30:11.978Z,101744.12
2018-05-06T21:32:40.308Z,101736.61
2018-05-06T21:35:08.674Z,101739.80
2018-05-06T21:37:37.020Z,101735.98
2018-05-06T21:40:05.368Z,101736.06
2018-05-06T21:42:33.730Z,101733.16
2018-05-06T21:45:02.860Z,101736.43
2018-05-06T21:47:31.974Z,101741.22
2018-05-06T21:50:00.346Z,101729.78
2018-05-06T21:52:28.694Z,101736.77
2018-05-06T21:54:57.062Z,101742.18
2018-05-06T21:57:26.162Z,101737.23
2018-05-06T21:59:55.304Z,101735.37
2018-05-06T22:02:23.633Z,101735.10
2018-05-06T22:04:52.730Z,101733.45
2018-05-06T22:07:21.909Z,101740.23
2018-05-06T22:09:50.234Z,101739.45
2018-05-06T22:12:18.614Z,101732.81
2018-05-06T22:14:46.964Z,101740.69
2018-05-06T22:17:16.099Z,101738.17
2018-05-06T22:19:44.467Z,101738.70
2018-05-06T22:22:12.779Z,101736.13
2018-05-06T22:24:41.335Z,101737.53
2018-05-06T22:27:09.705Z,101740.08
2018-05-06T22:29:38.046Z,101736.62
2018-05-06T22:32:07.143Z,101740.82
2018-05-06T22:34:37.029Z,101735.02
2018-05-06T22:37:05.369Z,101735.81
2018-05-06T22:39:33.701Z,101741.13
2018-05-06T22:42:02.828Z,101738.03
2018-05-06T22:44:31.152Z,101738.19
2018-05-06T22:46:59.485Z,101730.28
2018-05-06T22:49:27.836Z,101732.08
2018-05-06T22:51:56.936Z,101724.17
2018-05-06T22:54:26.074Z,101727.27
2018-05-06T22:56:54.416Z,101727.85
2018-05-06T22:59:22.773Z,101723.56
2018-05-06T23:01:51.908Z,101727.63
2018-05-06T23:04:20.215Z,101720.66
2018-05-06T23:06:48.592Z,101716.28
2018-05-06T23:09:17.028Z,101712.80
2018-05-06T23:11:45.351Z,101715.01
2018-05-06T23:14:13.721Z,101712.75
2018-05-06T23:16:42.084Z,101714.47
2018-05-06T23:19:10.440Z,101715.35
2018-05-06T23:21:38.855Z,101709.18
2018-05-06T23:24:07.211Z,101714.09
2018-05-06T23:26:35.626Z,101720.17
2018-05-06T23:29:03.925Z,101707.97
2018-05-06T23:31:33.025Z,101709.67
2018-05-06T23:34:02.149Z,101706.19
2018-05-06T23:36:30.494Z,101703.86
2018-05-06T23:38:59.629Z,101707.02
2018-05-06T23:41:27.964Z,101710.23
2018-05-06T23:43:56.341Z,101715.09
2018-05-06T23:46:25.446Z,101719.45
2018-05-06T23:48:54.595Z,101724.83
2018-05-06T23:51:22.951Z,101727.58
2018-05-06T23:53:51.283Z,101729.94
2018-05-06T23:56:19.664Z,101722.91
2018-05-06T23:58:48.751Z,101720.70
